Philadelphia, Pennsylvania
Traffic Map
Current Weather Conditions
Philadelphia, Pennsylvania
Broken Clouds
Broken Clouds

Feels Like: 6°
Wind Chill: Ceiling: 26000
Heat Index: Visibility: 10mi
Dew Point: -4° Wind: 7mph
Humidity: 41% Direction: 330° (NNW)
Pressure: 30.2in Gusts: 0mph
Raw Report DataKPHL 041954Z 33006KT 10SM SCT190 BKN260 08/M04 A3020 RMK AO2 SLP227 T00831044
Traffic Incident Summary
Active as of:
Severity:
Category:
InformationThere was an issue retrieving the traffic information for this location. Please try a different location or try again shortly.
Advertisements
Track Severe Weather on mobile